Terminal Aerodrome Forecast
Issued by NWS Paducah, KY

Home | Current Version | Previous Version | Text Only | Print | Product List | Glossary On
Versions: 1 2 3 4 5 6 7 8 9 10 11 12 13 14 15 16 17
000
FTUS43 KPAH 231500 AAA
TAFPAH
TAF AMD
KPAH 231531Z 2316/2412 04007KT 5SM -TSRA SCT025 BKN045CB
      TEMPO 2316/2318 06012G23KT 3SM -TSRA SCT015 BKN025CB
     FM232000 33007KT P6SM BKN040
     FM240100 36006KT P6SM SCT025 BKN040=

USA.gov is the U.S. government's official web portal to all federal, state and local government web resources and services.